Portada
METAR-TAF:

METAR-TAF

Aeroports :

Madison, Indiana, Estats Units d'Amèrica

latitud: 38-45-36N, longitud: 085-27-53W, altitud: 250 m

Observació

L'informe es va fer fa 16 minuts, a les 11:15 UTC
Vent calma
Temperatura 20°C
Humitat 100%
Pressió 1013 hPa
Visibilitat: 16.1 km
Núvols disperses a una alçada de 3900 ft
Cel ennuvolat a una alçada de 4900 ft
Cel cobert a una alçada de 11000 ft
pluja

METAR: KIMS 221115Z AUTO 00000KT 10SM -RA SCT039 BKN049 OVC110 20/20 A2990 RMK AO2

Hora: 07:31 (11:31 UTC)


TAF: manca

Observacions i pronòstics meteorològics de més de 4000 aeroports (METAR i TAF).

Les estacions disponibles són els punts grocs i vermells al mapa.

Posi el ratolí al punt desitjat per veure el nom de l'estació.

Feu clic per veure les observacions i els pronòstics meteorològics.

Per canviar el mapa: feu clic els botons verds amb una creu de color negre per apropar; al botó verd amb un guió per allunyar la imatge; o en les fletxes verdes per a mapes adjacents.


METAR-TAF: